createdAt,value
2018-01-20T00:00:43.236Z,9.77
2018-01-20T00:03:10.902Z,7.57
2018-01-20T00:05:38.416Z,14.20
2018-01-20T00:08:05.894Z,6.93
2018-01-20T00:13:33.610Z,8.27
2018-01-20T00:16:01.877Z,11.12
2018-01-20T00:18:29.350Z,6.80
2018-01-20T00:20:57.614Z,4.70
2018-01-20T00:23:25.901Z,5.75
2018-01-20T00:26:00.695Z,11.63
2018-01-20T00:28:28.172Z,9.13
2018-01-20T00:30:55.674Z,5.85
2018-01-20T00:33:23.958Z,11.18
2018-01-20T00:35:51.442Z,10.10
2018-01-20T00:38:19.690Z,9.77
2018-01-20T00:40:47.189Z,12.68
2018-01-20T00:43:14.675Z,8.10
2018-01-20T00:45:42.914Z,6.80
2018-01-20T00:48:10.447Z,5.12
2018-01-20T00:50:38.085Z,3.33
2018-01-20T00:53:05.566Z,10.25
2018-01-20T00:55:33.077Z,10.18
2018-01-20T00:58:01.329Z,6.43
2018-01-20T01:00:28.813Z,6.90
2018-01-20T01:02:57.229Z,5.30
2018-01-20T01:05:24.718Z,7.78
2018-01-20T01:07:52.190Z,6.90
2018-01-20T01:10:19.693Z,11.25
2018-01-20T01:12:47.170Z,10.98
2018-01-20T01:15:14.659Z,10.20
2018-01-20T01:17:42.182Z,7.45
2018-01-20T01:20:09.727Z,10.27
2018-01-20T01:22:37.205Z,6.32
2018-01-20T01:25:04.759Z,12.00
2018-01-20T01:27:32.234Z,9.80
2018-01-20T01:29:59.701Z,5.55
2018-01-20T01:32:27.222Z,13.60
2018-01-20T01:34:54.797Z,7.70
2018-01-20T01:37:22.279Z,15.20
2018-01-20T01:39:49.768Z,9.77
2018-01-20T01:42:17.909Z,15.75
2018-01-20T01:44:45.402Z,7.53
2018-01-20T01:47:12.946Z,7.25
2018-01-20T01:49:40.433Z,6.47
2018-01-20T01:52:08.677Z,8.30
2018-01-20T01:54:36.254Z,8.68
2018-01-20T01:57:03.725Z,9.32
2018-01-20T01:59:32.857Z,6.50
2018-01-20T02:02:00.598Z,11.48
2018-01-20T02:04:28.143Z,7.37
2018-01-20T02:06:57.047Z,5.35
2018-01-20T02:09:24.594Z,6.65
2018-01-20T02:11:52.983Z,8.70
2018-01-20T02:14:21.360Z,7.57
2018-01-20T02:16:48.889Z,13.38
2018-01-20T02:19:16.427Z,6.18
2018-01-20T02:21:44.175Z,6.72
2018-01-20T02:24:11.681Z,7.87
2018-01-20T02:26:39.328Z,7.05
2018-01-20T02:29:06.817Z,7.00
2018-01-20T02:31:35.130Z,4.10
2018-01-20T02:34:02.754Z,4.47
2018-01-20T02:36:30.282Z,6.87
2018-01-20T02:38:57.778Z,7.65
2018-01-20T02:41:26.018Z,4.30
2018-01-20T02:43:53.494Z,5.82
2018-01-20T02:46:20.973Z,9.40
2018-01-20T02:48:49.946Z,9.15
2018-01-20T02:51:17.481Z,4.37
2018-01-20T02:53:44.976Z,4.28
2018-01-20T02:56:13.219Z,6.90
2018-01-20T02:58:40.733Z,10.05
2018-01-20T03:01:08.269Z,8.27
2018-01-20T03:03:36.537Z,5.28
2018-01-20T03:06:04.650Z,5.97
2018-01-20T03:08:32.134Z,6.32
2018-01-20T03:10:59.625Z,8.18
2018-01-20T03:13:27.094Z,8.43
2018-01-20T03:15:54.741Z,4.15
2018-01-20T03:18:23.124Z,13.95
2018-01-20T03:20:50.669Z,7.03
2018-01-20T03:23:18.169Z,5.18
2018-01-20T03:25:45.645Z,4.72
2018-01-20T03:28:13.133Z,9.00
2018-01-20T03:30:40.904Z,11.27
2018-01-20T03:33:08.450Z,16.08
2018-01-20T03:35:35.938Z,6.22
2018-01-20T03:38:03.478Z,9.10
2018-01-20T03:40:31.115Z,8.80
2018-01-20T03:42:58.590Z,8.43
2018-01-20T03:45:26.085Z,7.37
2018-01-20T03:47:54.336Z,13.40
2018-01-20T03:50:21.897Z,5.95
2018-01-20T03:52:50.343Z,9.88
2018-01-20T03:55:17.813Z,7.60
2018-01-20T03:57:45.293Z,4.87
2018-01-20T04:00:12.777Z,8.73
2018-01-20T04:02:41.023Z,9.30
2018-01-20T04:05:08.517Z,5.45
2018-01-20T04:07:36.773Z,11.82
2018-01-20T04:10:04.259Z,11.00
2018-01-20T04:12:32.507Z,8.48
2018-01-20T04:15:00.055Z,13.70
2018-01-20T04:17:27.591Z,8.27
2018-01-20T04:19:55.062Z,8.27
2018-01-20T04:22:22.577Z,7.72
2018-01-20T04:24:50.109Z,5.68
2018-01-20T04:27:18.362Z,6.30
2018-01-20T04:29:45.866Z,7.18
2018-01-20T04:32:14.122Z,8.95
2018-01-20T04:34:41.604Z,5.10
2018-01-20T04:37:09.858Z,7.15
2018-01-20T04:39:37.438Z,6.35
2018-01-20T04:42:04.950Z,6.28
2018-01-20T04:44:32.501Z,9.90
2018-01-20T04:46:59.984Z,5.55
2018-01-20T04:49:27.469Z,8.00
2018-01-20T04:51:55.731Z,9.82
2018-01-20T04:54:23.978Z,5.65
2018-01-20T04:56:51.453Z,11.52
2018-01-20T04:59:19.050Z,9.45
2018-01-20T05:01:46.549Z,12.25
2018-01-20T05:04:14.021Z,3.58
2018-01-20T05:06:41.522Z,5.12
2018-01-20T05:09:09.758Z,6.53
2018-01-20T05:11:37.237Z,8.15
2018-01-20T05:14:05.680Z,6.00
2018-01-20T05:16:33.970Z,8.27
2018-01-20T05:21:36.201Z,7.87
2018-01-20T05:24:03.801Z,8.73
2018-01-20T05:26:31.352Z,10.05
2018-01-20T05:28:58.870Z,9.50
2018-01-20T05:31:27.115Z,7.82
2018-01-20T05:33:54.593Z,7.55
2018-01-20T05:36:22.874Z,5.97
2018-01-20T05:38:51.117Z,6.95
2018-01-20T05:41:19.372Z,12.48
2018-01-20T05:43:46.879Z,8.55
2018-01-20T05:46:14.369Z,7.82
2018-01-20T05:48:41.914Z,11.95
2018-01-20T05:51:10.172Z,18.67
2018-01-20T05:53:37.653Z,8.98
2018-01-20T05:56:05.129Z,11.73
2018-01-20T05:58:32.639Z,9.93
2018-01-20T06:01:00.148Z,8.75
2018-01-20T06:03:27.622Z,17.17
2018-01-20T06:05:55.160Z,10.65
2018-01-20T06:08:22.645Z,10.32
2018-01-20T06:10:50.186Z,13.35
2018-01-20T06:13:17.835Z,12.02
2018-01-20T06:15:45.325Z,11.50
2018-01-20T06:18:12.810Z,11.98
2018-01-20T06:20:40.305Z,17.80
2018-01-20T06:23:07.798Z,18.50
2018-01-20T06:25:35.444Z,12.70
2018-01-20T06:28:03.033Z,13.20
2018-01-20T06:30:30.518Z,11.80
2018-01-20T06:32:58.142Z,18.17
2018-01-20T06:35:25.679Z,13.15
2018-01-20T06:37:53.161Z,18.02
2018-01-20T06:40:20.646Z,16.25
2018-01-20T06:42:48.129Z,17.25
2018-01-20T06:45:16.380Z,18.10
2018-01-20T06:47:43.915Z,19.15
2018-01-20T06:50:11.426Z,14.68
2018-01-20T06:52:39.673Z,19.52
2018-01-20T06:55:07.157Z,19.62
2018-01-20T06:57:35.418Z,12.95
2018-01-20T07:00:03.055Z,15.57
2018-01-20T07:02:30.569Z,14.35
2018-01-20T07:04:58.058Z,15.07
2018-01-20T07:07:25.546Z,15.60
2018-01-20T07:09:53.025Z,17.80
2018-01-20T07:12:21.331Z,17.87
2018-01-20T07:14:48.818Z,17.50
2018-01-20T07:17:16.309Z,12.98
2018-01-20T07:19:43.817Z,13.60
2018-01-20T07:22:11.301Z,12.63
2018-01-20T07:24:38.790Z,20.35
2018-01-20T07:27:07.057Z,12.23
2018-01-20T07:29:34.642Z,12.35
2018-01-20T07:32:02.171Z,11.48
2018-01-20T07:34:29.702Z,13.20
2018-01-20T07:36:57.188Z,16.10
2018-01-20T07:39:24.669Z,10.73
2018-01-20T07:41:52.946Z,11.32
2018-01-20T07:44:21.416Z,15.85
2018-01-20T07:46:49.678Z,13.18
2018-01-20T07:49:17.170Z,15.52
2018-01-20T07:51:44.704Z,13.85
2018-01-20T07:54:12.294Z,12.10
2018-01-20T07:56:39.971Z,12.15
2018-01-20T07:59:08.091Z,16.95
2018-01-20T08:01:35.914Z,11.20
2018-01-20T08:04:04.446Z,13.40
2018-01-20T08:06:32.129Z,12.88
2018-01-20T08:08:59.767Z,14.02
2018-01-20T08:11:27.411Z,13.57
2018-01-20T08:13:55.131Z,14.20
2018-01-20T08:16:22.676Z,20.35
2018-01-20T08:18:50.314Z,16.17
2018-01-20T08:21:17.931Z,16.10
2018-01-20T08:23:45.638Z,19.10
2018-01-20T08:26:13.302Z,19.15
2018-01-20T08:28:40.936Z,19.30
2018-01-20T08:31:08.634Z,17.85
2018-01-20T08:33:36.261Z,16.30
2018-01-20T08:38:58.088Z,18.58
2018-01-20T08:41:26.146Z,25.17
2018-01-20T08:43:53.853Z,25.23
2018-01-20T08:46:21.547Z,17.65
2018-01-20T08:48:49.395Z,25.15
2018-01-20T08:51:17.058Z,21.62
2018-01-20T08:53:44.755Z,24.48
2018-01-20T08:56:13.230Z,18.75
2018-01-20T08:58:42.432Z,21.27
2018-01-20T09:01:10.128Z,21.37
2018-01-20T09:03:40.052Z,25.77
2018-01-20T09:06:07.685Z,23.48
2018-01-20T09:08:35.382Z,21.98
2018-01-20T09:11:03.774Z,21.98
2018-01-20T09:13:31.428Z,22.95
2018-01-20T09:15:59.088Z,17.95
2018-01-20T09:18:26.842Z,20.23
2018-01-20T09:20:54.356Z,22.20
2018-01-20T09:23:29.117Z,21.65
2018-01-20T09:25:56.982Z,22.25
2018-01-20T09:28:31.051Z,21.85
2018-01-20T09:30:59.445Z,24.95
2018-01-20T09:33:27.790Z,20.75
2018-01-20T09:35:56.920Z,21.25
2018-01-20T09:38:25.473Z,15.82
2018-01-20T09:40:53.120Z,19.27
2018-01-20T09:43:20.946Z,14.52
2018-01-20T09:45:49.140Z,17.50
2018-01-20T09:48:16.835Z,12.60
2018-01-20T09:50:49.617Z,15.35
2018-01-20T09:53:17.382Z,13.48
2018-01-20T09:55:45.057Z,17.75
2018-01-20T09:58:12.735Z,16.87
2018-01-20T10:00:40.424Z,14.30
2018-01-20T10:03:07.983Z,14.82
2018-01-20T10:05:35.769Z,12.13
2018-01-20T10:08:05.536Z,11.10
2018-01-20T10:10:33.137Z,10.98
2018-01-20T10:13:00.894Z,14.45
2018-01-20T10:15:28.491Z,10.93
2018-01-20T10:17:56.087Z,10.18
2018-01-20T10:20:29.115Z,10.70
2018-01-20T10:23:00.243Z,12.32
2018-01-20T10:25:30.151Z,10.35
2018-01-20T10:27:57.781Z,10.73
2018-01-20T10:30:26.735Z,9.77
2018-01-20T10:33:04.000Z,10.85
2018-01-20T10:35:33.115Z,17.55
2018-01-20T10:38:01.300Z,8.93
2018-01-20T10:40:28.966Z,8.35
2018-01-20T10:42:57.524Z,9.73
2018-01-20T10:45:25.213Z,10.35
2018-01-20T10:47:52.828Z,5.97
2018-01-20T10:50:20.607Z,9.02
2018-01-20T10:52:48.312Z,8.93
2018-01-20T10:55:17.248Z,7.60
2018-01-20T10:57:45.022Z,9.07
2018-01-20T11:00:13.400Z,8.75
2018-01-20T11:02:40.985Z,6.60
2018-01-20T11:05:08.591Z,6.90
2018-01-20T11:07:36.338Z,7.53
2018-01-20T11:10:03.979Z,7.40
2018-01-20T11:12:31.524Z,5.72
2018-01-20T11:14:59.137Z,5.78
2018-01-20T11:17:27.541Z,8.52
2018-01-20T11:19:55.146Z,9.45
2018-01-20T11:22:23.609Z,9.23
2018-01-20T11:24:51.098Z,7.57
2018-01-20T11:27:19.086Z,5.95
2018-01-20T11:29:46.789Z,6.30
2018-01-20T11:32:14.370Z,7.68
2018-01-20T11:34:41.865Z,6.78
2018-01-20T11:37:09.443Z,11.25
2018-01-20T11:39:37.953Z,11.38
2018-01-20T11:42:05.506Z,7.95
2018-01-20T11:44:33.096Z,7.75
2018-01-20T11:47:00.725Z,10.82
2018-01-20T11:49:28.304Z,7.25
2018-01-20T11:51:55.977Z,6.28
2018-01-20T11:54:23.691Z,6.28
2018-01-20T11:56:51.347Z,9.00
2018-01-20T11:59:19.133Z,4.55
2018-01-20T12:01:47.691Z,6.82
2018-01-20T12:04:15.474Z,8.00
2018-01-20T12:06:43.132Z,7.37
2018-01-20T12:09:10.799Z,8.52
2018-01-20T12:11:38.404Z,6.03
2018-01-20T12:14:06.242Z,6.12
2018-01-20T12:16:34.609Z,10.07
2018-01-20T12:19:03.196Z,5.80
2018-01-20T12:21:30.865Z,7.22
2018-01-20T12:23:58.705Z,8.50
2018-01-20T12:26:26.574Z,7.85
2018-01-20T12:28:54.352Z,8.02
2018-01-20T12:31:22.318Z,9.38
2018-01-20T12:33:50.734Z,7.15
2018-01-20T12:36:18.310Z,7.03
2018-01-20T12:38:46.086Z,6.60
2018-01-20T12:41:13.713Z,5.87
2018-01-20T12:43:41.444Z,7.20
2018-01-20T12:46:09.964Z,6.35
2018-01-20T12:48:37.497Z,7.25
2018-01-20T12:51:05.001Z,6.82
2018-01-20T12:53:32.493Z,5.22
2018-01-20T12:56:00.063Z,5.68
2018-01-20T12:58:28.305Z,7.60
2018-01-20T13:00:55.874Z,6.15
2018-01-20T13:03:23.709Z,6.00
2018-01-20T13:05:51.181Z,6.82
2018-01-20T13:08:18.654Z,5.70
2018-01-20T13:10:46.336Z,6.22
2018-01-20T13:13:14.754Z,5.30
2018-01-20T13:15:42.242Z,6.03
2018-01-20T13:18:09.720Z,8.57
2018-01-20T13:20:37.240Z,5.85
2018-01-20T13:23:05.134Z,7.12
2018-01-20T13:25:32.808Z,7.47
2018-01-20T13:28:01.618Z,6.70
2018-01-20T13:30:29.910Z,7.28
2018-01-20T13:32:58.207Z,5.75
2018-01-20T13:35:25.701Z,7.60
2018-01-20T13:37:53.292Z,6.80
2018-01-20T13:40:21.573Z,7.50
2018-01-20T13:42:49.814Z,8.02
2018-01-20T13:45:17.296Z,8.18
2018-01-20T13:47:44.833Z,8.13
2018-01-20T13:50:12.433Z,8.38
2018-01-20T13:52:40.677Z,6.97
2018-01-20T13:55:08.250Z,7.15
2018-01-20T13:57:36.354Z,5.82
2018-01-20T14:00:04.606Z,6.10
2018-01-20T14:02:32.875Z,6.80
2018-01-20T14:05:00.350Z,5.95
2018-01-20T14:07:28.633Z,6.62
2018-01-20T14:09:56.212Z,6.35
2018-01-20T14:12:23.733Z,6.15
2018-01-20T14:14:51.202Z,6.32
2018-01-20T14:17:19.505Z,5.70
2018-01-20T14:19:47.175Z,6.70
2018-01-20T14:22:14.674Z,5.97
2018-01-20T14:24:42.402Z,5.95
2018-01-20T14:27:09.914Z,6.32
2018-01-20T14:29:38.258Z,6.22
2018-01-20T14:32:05.754Z,5.57
2018-01-20T14:34:34.128Z,6.28
2018-01-20T14:37:01.739Z,6.12
2018-01-20T14:39:29.393Z,6.87
2018-01-20T14:41:56.936Z,7.62
2018-01-20T14:44:24.493Z,8.25
2018-01-20T14:46:52.934Z,5.85
2018-01-20T14:49:20.485Z,5.95
2018-01-20T14:51:48.080Z,7.45
2018-01-20T14:54:15.594Z,5.72
2018-01-20T14:56:43.117Z,6.95
2018-01-20T14:59:10.775Z,9.43
2018-01-20T15:01:38.365Z,5.65
2018-01-20T15:04:05.852Z,6.97
2018-01-20T15:06:33.474Z,7.10
2018-01-20T15:09:00.969Z,6.53
2018-01-20T15:11:28.526Z,6.62
2018-01-20T15:13:56.213Z,7.10
2018-01-20T15:16:28.526Z,8.18
2018-01-20T15:19:09.987Z,8.05
2018-01-20T15:21:39.301Z,8.82
2018-01-20T15:24:07.142Z,7.25
2018-01-20T15:29:09.474Z,8.18
2018-01-20T15:31:36.973Z,8.57
2018-01-20T15:34:04.470Z,8.43
2018-01-20T15:36:32.031Z,9.90
2018-01-20T15:38:59.551Z,9.73
2018-01-20T15:41:27.088Z,8.80
2018-01-20T15:43:54.565Z,12.15
2018-01-20T15:46:22.050Z,9.70
2018-01-20T15:48:50.345Z,9.88
2018-01-20T15:51:17.846Z,9.35
2018-01-20T15:53:45.345Z,10.05
2018-01-20T15:56:13.642Z,11.88
2018-01-20T15:58:41.118Z,9.82
2018-01-20T16:01:08.597Z,9.85
2018-01-20T16:03:36.094Z,10.68
2018-01-20T16:06:04.334Z,9.18
2018-01-20T16:08:31.861Z,10.23
2018-01-20T16:10:59.434Z,10.35
2018-01-20T16:13:27.117Z,10.75
2018-01-20T16:15:54.705Z,10.63
2018-01-20T16:18:23.024Z,13.02
2018-01-20T16:20:50.648Z,16.00
2018-01-20T16:23:18.170Z,10.35
2018-01-20T16:25:45.785Z,11.85
2018-01-20T16:28:14.023Z,9.75
2018-01-20T16:30:41.526Z,9.68
2018-01-20T16:33:09.078Z,11.38
2018-01-20T16:35:36.658Z,11.18
2018-01-20T16:38:04.274Z,13.70
2018-01-20T16:40:32.033Z,14.60
2018-01-20T16:43:00.401Z,15.45
2018-01-20T16:45:27.909Z,13.90
2018-01-20T16:47:56.310Z,16.45
2018-01-20T16:50:23.866Z,13.88
2018-01-20T16:52:51.452Z,12.57
2018-01-20T16:55:19.071Z,15.98
2018-01-20T16:57:46.753Z,14.98
2018-01-20T17:00:14.455Z,15.80
2018-01-20T17:02:42.282Z,14.87
2018-01-20T17:05:10.188Z,14.15
2018-01-20T17:07:38.694Z,14.52
2018-01-20T17:10:06.398Z,15.63
2018-01-20T17:12:34.836Z,15.90
2018-01-20T17:15:02.582Z,15.40
2018-01-20T17:17:30.248Z,18.10
2018-01-20T17:19:58.052Z,15.75
2018-01-20T17:22:25.794Z,17.70
2018-01-20T17:24:53.519Z,18.60
2018-01-20T17:27:22.026Z,17.77
2018-01-20T17:29:49.760Z,19.52
2018-01-20T17:32:17.423Z,15.30
2018-01-20T17:34:44.957Z,16.12
2018-01-20T17:37:15.410Z,17.30
2018-01-20T17:39:43.149Z,16.45
2018-01-20T17:42:11.024Z,18.02
2018-01-20T17:44:38.810Z,16.45
2018-01-20T17:47:07.175Z,15.20
2018-01-20T17:49:34.826Z,12.90
2018-01-20T17:52:02.448Z,15.15
2018-01-20T17:54:30.891Z,17.25
2018-01-20T17:56:58.474Z,16.33
2018-01-20T17:59:26.175Z,16.58
2018-01-20T18:01:53.864Z,16.62
2018-01-20T18:04:21.459Z,18.58
2018-01-20T18:06:49.876Z,15.25
2018-01-20T18:09:17.552Z,19.60
2018-01-20T18:11:45.130Z,18.62
2018-01-20T18:14:12.672Z,17.00
2018-01-20T18:16:40.348Z,19.87
2018-01-20T18:19:07.842Z,21.37
2018-01-20T18:21:35.337Z,22.05
2018-01-20T18:24:02.824Z,21.60
2018-01-20T18:26:30.303Z,24.75
2018-01-20T18:28:57.842Z,21.17
2018-01-20T18:31:25.329Z,22.58
2018-01-20T18:33:52.933Z,23.95
2018-01-20T18:36:21.196Z,24.70
2018-01-20T18:38:49.441Z,23.80
2018-01-20T18:41:16.928Z,27.58
2018-01-20T18:43:45.238Z,25.90
2018-01-20T18:46:12.722Z,26.50
2018-01-20T18:48:40.210Z,23.50
2018-01-20T18:51:07.875Z,22.35
2018-01-20T18:53:35.378Z,23.08
2018-01-20T18:56:02.870Z,22.77
2018-01-20T18:58:30.449Z,24.33
2018-01-20T19:00:58.977Z,23.02
2018-01-20T19:03:27.307Z,24.50
2018-01-20T19:05:54.814Z,26.12
2018-01-20T19:08:22.298Z,18.80
2018-01-20T19:10:49.799Z,25.75
2018-01-20T19:13:18.086Z,24.80
2018-01-20T19:15:45.574Z,24.77
2018-01-20T19:18:13.062Z,24.37
2018-01-20T19:20:40.639Z,25.52
2018-01-20T19:23:08.112Z,23.90
2018-01-20T19:25:36.361Z,29.25
2018-01-20T19:28:03.987Z,27.05
2018-01-20T19:30:31.612Z,26.62
2018-01-20T19:32:59.290Z,23.30
2018-01-20T19:35:27.590Z,25.25
2018-01-20T19:37:55.081Z,25.50
2018-01-20T19:40:22.576Z,27.13
2018-01-20T19:42:50.114Z,28.60
2018-01-20T19:45:17.674Z,24.50
2018-01-20T19:47:45.207Z,22.92
2018-01-20T19:50:12.799Z,24.08
2018-01-20T19:52:41.089Z,26.23
2018-01-20T19:55:09.380Z,21.62
2018-01-20T19:57:36.862Z,25.15
2018-01-20T20:00:04.346Z,26.58
2018-01-20T20:02:32.288Z,25.17
2018-01-20T20:04:59.785Z,29.75
2018-01-20T20:07:28.124Z,25.48
2018-01-20T20:09:55.675Z,32.95
2018-01-20T20:12:23.219Z,33.55
2018-01-20T20:14:50.709Z,34.10
2018-01-20T20:17:18.193Z,37.97
2018-01-20T20:19:45.826Z,35.95
2018-01-20T20:22:13.306Z,34.42
2018-01-20T20:24:40.806Z,40.53
2018-01-20T20:27:09.076Z,32.40
2018-01-20T20:29:37.318Z,34.10
2018-01-20T20:32:04.810Z,35.40
2018-01-20T20:34:38.457Z,32.60
2018-01-20T20:37:06.795Z,34.67
2018-01-20T20:39:35.098Z,34.75
2018-01-20T20:42:02.701Z,39.90
2018-01-20T20:44:30.257Z,40.42
2018-01-20T20:46:57.749Z,38.22
2018-01-20T20:49:26.033Z,37.53
2018-01-20T20:51:54.453Z,34.85
2018-01-20T20:54:21.947Z,37.58
2018-01-20T20:56:49.526Z,33.60
2018-01-20T20:59:17.769Z,31.23
2018-01-20T21:01:45.265Z,37.35
2018-01-20T21:04:13.579Z,31.42
2018-01-20T21:06:42.087Z,34.85
2018-01-20T21:09:09.680Z,35.42
2018-01-20T21:11:37.394Z,40.60
2018-01-20T21:14:04.917Z,45.90
2018-01-20T21:16:33.329Z,43.28
2018-01-20T21:19:00.843Z,48.53
2018-01-20T21:21:29.086Z,43.38
2018-01-20T21:23:56.580Z,45.05
2018-01-20T21:26:24.862Z,42.62
2018-01-20T21:28:52.357Z,41.65
2018-01-20T21:31:19.841Z,44.00
2018-01-20T21:36:21.217Z,51.08
2018-01-20T21:38:48.754Z,45.58
2018-01-20T21:41:16.359Z,55.67
2018-01-20T21:43:44.088Z,55.63
2018-01-20T21:46:11.647Z,57.65
2018-01-20T21:48:39.929Z,47.42
2018-01-20T21:51:07.417Z,51.47
2018-01-20T21:53:35.667Z,53.65
2018-01-20T21:56:03.186Z,52.83
2018-01-20T21:58:30.682Z,50.90
2018-01-20T22:00:58.167Z,54.80
2018-01-20T22:03:26.444Z,61.67
2018-01-20T22:05:55.592Z,57.22
2018-01-20T22:08:24.036Z,61.05
2018-01-20T22:10:51.594Z,62.00
2018-01-20T22:13:20.052Z,60.72
2018-01-20T22:15:48.426Z,65.70
2018-01-20T22:18:16.818Z,67.37
2018-01-20T22:20:45.073Z,58.60
2018-01-20T22:23:12.558Z,62.72
2018-01-20T22:25:40.869Z,66.18
2018-01-20T22:28:08.455Z,67.05
2018-01-20T22:30:36.818Z,78.10
2018-01-20T22:33:04.435Z,75.07
2018-01-20T22:35:32.961Z,82.03
2018-01-20T22:38:00.626Z,74.75
2018-01-20T22:40:28.213Z,79.22
2018-01-20T22:42:55.778Z,84.13
2018-01-20T22:45:23.296Z,80.47
2018-01-20T22:47:50.858Z,87.25
2018-01-20T22:50:18.419Z,82.35
2018-01-20T22:52:45.945Z,89.05
2018-01-20T22:55:14.340Z,101.65
2018-01-20T22:57:42.005Z,88.28
2018-01-20T23:00:09.625Z,85.75
2018-01-20T23:02:38.154Z,80.80
2018-01-20T23:05:05.750Z,74.43
2018-01-20T23:07:33.387Z,66.72
2018-01-20T23:10:01.763Z,69.93
2018-01-20T23:12:29.415Z,57.35
2018-01-20T23:14:56.978Z,65.25
2018-01-20T23:17:24.566Z,67.28
2018-01-20T23:19:52.052Z,56.85
2018-01-20T23:22:19.537Z,60.70
2018-01-20T23:24:47.162Z,57.38
2018-01-20T23:27:14.706Z,54.33
2018-01-20T23:29:42.201Z,54.65
2018-01-20T23:32:09.743Z,50.65
2018-01-20T23:34:37.466Z,50.20
2018-01-20T23:37:04.953Z,48.65
2018-01-20T23:39:32.637Z,46.83
2018-01-20T23:42:00.897Z,44.97
2018-01-20T23:44:28.499Z,47.45
2018-01-20T23:46:56.764Z,54.63
2018-01-20T23:49:25.011Z,45.58
2018-01-20T23:51:52.627Z,47.05
2018-01-20T23:54:20.226Z,44.53
2018-01-20T23:56:47.831Z,46.55
2018-01-20T23:59:15.339Z,40.05
